KBWD/BWD METAR and TAF weather

Enter ICAO airport designator
Station Type Date Time Source
KBWD METAR 2019/10/18 05:55 UTC NOAA

KBWD 180555Z AUTO 00000KT 10SM CLR 09/04 A2992 RMK AO1


Station Type Date Time Source
KBWD Decoded METAR 2019/10/18 05:55 UTC NOAA

Brownwood, Brownwood Regional Airport, TX, United States (KBWD) 31-48N 098-57W
Oct 18, 2019 - 01:55 AM EDT / 2019.10.18 0555 UTC
Wind: Calm:0
Visibility: 10 mile(s):0
Sky conditions: clear
Temperature: 48 F (9 C)
Dew Point: 39 F (4 C)
Relative Humidity: 70%
Pressure (altimeter): 29.92 in. Hg (1013 hPa)
ob: KBWD 180555Z AUTO 00000KT 10SM CLR 09/04 A2992 RMK AO1
cycle: 6

Station Type Date Time Source
KBWD TAF UTC NOAA

Error!

Example: see airport list